Time;durP1;ratioP1;P1;durP2;ratioP2;P2;SDS_P1;SDS_P2;PMS_P1;PMS_P2;Temp;Humidity;BMP_temperature;BMP_pressure;BME280_temperature;BME280_humidity;BME280_pressure;Samples;Min_cycle;Max_cycle;Signal;HPM_P1;HPM_P2
2022/03/05 00:00:24;;;;;;;4.50;3.10;;;;;;;-1.43;69.87;99345.88;109383;1274;22611;-55
2022/03/05 00:02:52;;;;;;;6.30;3.40;;;;;;;-1.43;70.07;99340.70;109341;1277;22724;-56
2022/03/05 00:05:21;;;;;;;5.90;3.90;;;;;;;-1.40;70.18;99342.52;109235;1275;138088;-56
2022/03/05 00:07:49;;;;;;;3.80;2.70;;;;;;;-1.38;70.35;99343.89;109427;1276;22378;-57
2022/03/05 00:10:19;;;;;;;7.40;3.90;;;;;;;-1.36;70.00;99344.41;109256;1275;137503;-57
2022/03/05 00:12:48;;;;;;;6.50;3.60;;;;;;;-1.37;69.95;99342.76;109384;1274;22422;-57
2022/03/05 00:15:16;;;;;;;6.80;3.50;;;;;;;-1.38;69.93;99335.21;109051;1277;139675;-57
2022/03/05 00:17:47;;;;;;;5.30;3.20;;;;;;;-1.38;70.16;99340.23;109292;1276;22408;-57
2022/03/05 00:20:16;;;;;;;5.20;3.70;;;;;;;-1.40;70.02;99338.77;109296;1275;22416;-57
2022/03/05 00:22:45;;;;;;;6.70;4.00;;;;;;;-1.42;70.17;99335.25;109150;1276;137403;-57
2022/03/05 00:25:14;;;;;;;4.70;3.60;;;;;;;-1.43;70.36;99332.02;109295;1275;22487;-57
2022/03/05 00:27:43;;;;;;;5.50;3.60;;;;;;;-1.43;70.45;99329.69;109111;1276;138642;-57
2022/03/05 00:30:11;;;;;;;5.10;3.30;;;;;;;-1.42;70.38;99332.61;109270;1276;22453;-57
2022/03/05 00:32:39;;;;;;;5.00;3.20;;;;;;;-1.43;70.12;99335.56;109317;1275;22242;-57
2022/03/05 00:35:08;;;;;;;7.60;3.10;;;;;;;-1.47;69.96;99331.20;109170;1276;138000;-58
2022/03/05 00:37:36;;;;;;;5.80;3.00;;;;;;;-1.46;69.85;99338.44;109258;1276;22497;-56
2022/03/05 00:40:05;;;;;;;5.90;3.60;;;;;;;-1.45;69.84;99337.65;109173;1277;137569;-56
2022/03/05 00:42:35;;;;;;;5.20;3.20;;;;;;;-1.44;70.03;99333.66;109207;1276;23397;-56
2022/03/05 00:45:05;;;;;;;6.80;4.20;;;;;;;-1.43;69.85;99335.23;109173;1275;138559;-55
2022/03/05 00:47:36;;;;;;;4.90;3.60;;;;;;;-1.45;69.80;99330.48;109237;1277;22500;-55
2022/03/05 00:50:05;;;;;;;5.70;3.60;;;;;;;-1.44;69.82;99334.85;109239;1276;22449;-55
2022/03/05 00:52:34;;;;;;;6.30;3.90;;;;;;;-1.45;69.75;99334.97;109188;1276;137538;-55
2022/03/05 00:55:02;;;;;;;6.10;3.30;;;;;;;-1.46;69.72;99333.52;109357;1276;22455;-56
2022/03/05 00:57:30;;;;;;;5.80;3.10;;;;;;;-1.47;69.82;99336.05;109258;1275;138219;-57
2022/03/05 00:59:59;;;;;;;5.10;3.30;;;;;;;-1.48;69.49;99334.04;109360;1274;22944;-56
2022/03/05 01:02:27;;;;;;;6.10;3.20;;;;;;;-1.49;69.45;99338.22;109384;1277;22488;-55
2022/03/05 01:04:55;;;;;;;5.30;3.40;;;;;;;-1.49;69.38;99338.13;109203;1276;139217;-55
2022/03/05 01:07:24;;;;;;;6.50;4.30;;;;;;;-1.50;69.34;99340.52;109250;1276;22437;-55
2022/03/05 01:09:54;;;;;;;4.90;3.20;;;;;;;-1.51;69.25;99345.42;109161;1276;139496;-57
2022/03/05 01:12:22;;;;;;;3.90;2.90;;;;;;;-1.52;69.41;99340.88;109416;1276;22671;-55
2022/03/05 01:14:50;;;;;;;4.90;3.00;;;;;;;-1.51;69.30;99341.72;109342;1276;22402;-56
2022/03/05 01:17:19;;;;;;;4.80;2.80;;;;;;;-1.49;69.69;99344.58;109184;1274;138475;-55
2022/03/05 01:19:46;;;;;;;4.60;3.10;;;;;;;-1.47;69.40;99344.98;109350;1277;24045;-57
2022/03/05 01:22:15;;;;;;;4.20;2.70;;;;;;;-1.45;69.61;99339.75;109097;1277;138301;-55
2022/03/05 01:24:44;;;;;;;4.50;3.30;;;;;;;-1.43;69.71;99337.16;109280;1275;22473;-55
2022/03/05 01:27:13;;;;;;;4.90;2.70;;;;;;;-1.42;69.68;99339.33;109168;1275;138772;-56
2022/03/05 01:29:41;;;;;;;6.60;3.10;;;;;;;-1.41;69.75;99339.62;109297;1276;22474;-56
2022/03/05 01:32:09;;;;;;;4.40;2.90;;;;;;;-1.39;69.80;99338.86;109248;1277;22617;-56
2022/03/05 01:34:37;;;;;;;4.10;2.90;;;;;;;-1.42;69.85;99336.90;109128;1276;137184;-56
2022/03/05 01:37:06;;;;;;;4.70;2.80;;;;;;;-1.41;69.96;99339.25;109306;1276;22417;-56
2022/03/05 01:39:34;;;;;;;4.10;3.20;;;;;;;-1.41;69.80;99340.73;109162;1277;137265;-56
2022/03/05 01:42:02;;;;;;;6.10;3.40;;;;;;;-1.41;69.84;99338.59;109223;1276;22480;-57
2022/03/05 01:44:30;;;;;;;5.50;3.60;;;;;;;-1.41;70.09;99340.20;109296;1276;22522;-57
2022/03/05 01:47:01;;;;;;;4.90;3.50;;;;;;;-1.42;70.09;99336.39;109114;1276;139511;-57
2022/03/05 01:49:30;;;;;;;7.10;3.70;;;;;;;-1.42;70.21;99340.02;109233;1277;22555;-57
2022/03/05 01:51:57;;;;;;;4.00;2.90;;;;;;;-1.41;70.21;99338.75;109166;1276;139104;-57
2022/03/05 01:54:26;;;;;;;4.60;2.90;;;;;;;-1.42;70.17;99340.40;109240;1275;22409;-57
2022/03/05 01:56:54;;;;;;;5.10;3.70;;;;;;;-1.42;70.35;99339.23;109201;1276;22307;-57
2022/03/05 01:59:23;;;;;;;5.40;3.30;;;;;;;-1.44;70.34;99338.72;109044;1277;137368;-57
2022/03/05 02:01:51;;;;;;;5.50;3.80;;;;;;;-1.45;70.40;99340.62;109259;1276;22542;-57
2022/03/05 02:04:19;;;;;;;6.70;3.70;;;;;;;-1.45;70.56;99339.88;109145;1276;137676;-57
2022/03/05 02:06:47;;;;;;;4.60;3.00;;;;;;;-1.46;70.53;99336.77;109293;1274;22523;-57
2022/03/05 02:09:16;;;;;;;4.40;3.20;;;;;;;-1.45;70.54;99339.13;109100;1276;137536;-57
2022/03/05 02:11:44;;;;;;;5.20;3.10;;;;;;;-1.44;70.47;99339.23;109260;1277;22559;-57
2022/03/05 02:14:16;;;;;;;5.30;2.90;;;;;;;-1.43;70.55;99339.70;109218;1276;22469;-54
2022/03/05 02:16:45;;;;;;;5.20;3.10;;;;;;;-1.43;70.45;99338.60;109172;1275;137066;-57
2022/03/05 02:19:13;;;;;;;5.70;3.50;;;;;;;-1.44;70.66;99340.66;109133;1276;22448;-57
2022/03/05 02:21:44;;;;;;;6.20;3.90;;;;;;;-1.45;70.74;99345.23;109206;1276;139173;-57
2022/03/05 02:24:13;;;;;;;5.90;3.50;;;;;;;-1.45;70.77;99345.09;109366;1275;22423;-57
2022/03/05 02:26:41;;;;;;;3.50;2.80;;;;;;;-1.45;70.79;99349.00;109298;1274;22600;-57
2022/03/05 02:29:09;;;;;;;5.50;3.10;;;;;;;-1.44;70.94;99351.25;109262;1276;139574;-57
2022/03/05 02:31:37;;;;;;;4.80;3.20;;;;;;;-1.43;71.11;99352.99;109376;1277;22599;-57
2022/03/05 02:34:05;;;;;;;3.70;2.60;;;;;;;-1.40;71.17;99356.11;109197;1274;137927;-57
2022/03/05 02:36:33;;;;;;;4.20;2.80;;;;;;;-1.37;71.12;99358.09;109363;1274;22576;-56
2022/03/05 02:39:01;;;;;;;4.10;2.70;;;;;;;-1.35;71.06;99357.59;109273;1277;22441;-55
2022/03/05 02:41:29;;;;;;;4.90;3.10;;;;;;;-1.33;71.32;99357.08;109196;1275;138611;-55
2022/03/05 02:43:59;;;;;;;4.90;2.90;;;;;;;-1.32;71.21;99356.23;109329;1276;22479;-56
2022/03/05 02:46:29;;;;;;;4.80;2.90;;;;;;;-1.31;71.42;99354.89;109203;1274;138206;-56
2022/03/05 02:48:58;;;;;;;4.00;2.80;;;;;;;-1.32;71.09;99356.33;109370;1275;22704;-56
2022/03/05 02:51:26;;;;;;;3.40;2.40;;;;;;;-1.30;70.89;99357.41;109230;1276;137629;-56
2022/03/05 02:53:54;;;;;;;4.10;3.20;;;;;;;-1.30;71.00;99360.38;109208;1277;22510;-55
2022/03/05 02:56:22;;;;;;;4.60;2.70;;;;;;;-1.31;70.87;99364.92;109258;1277;22948;-56
2022/03/05 02:58:50;;;;;;;5.30;3.00;;;;;;;-1.31;70.73;99367.98;108928;1277;138930;-55
2022/03/05 03:01:18;;;;;;;6.40;3.40;;;;;;;-1.30;70.68;99367.23;109312;1277;22430;-56
2022/03/05 03:03:47;;;;;;;4.00;2.60;;;;;;;-1.30;70.63;99364.70;109249;1275;137688;-56
2022/03/05 03:06:15;;;;;;;3.10;2.40;;;;;;;-1.29;70.76;99364.57;109323;1276;22647;-55
2022/03/05 03:11:06;;;;;;;3.60;2.80;;;;;;;-1.26;70.68;99362.79;101621;1310;546329;-55
2022/03/05 03:13:34;;;;;;;4.40;2.50;;;;;;;-1.28;70.44;99366.02;103897;1287;24279;-56
2022/03/05 03:16:04;;;;;;;4.10;3.00;;;;;;;-1.28;70.16;99372.63;103752;1286;138268;-54
2022/03/05 03:18:32;;;;;;;3.10;2.20;;;;;;;-1.27;70.41;99378.53;108395;1284;22510;-55
2022/03/05 03:21:00;;;;;;;4.60;2.80;;;;;;;-1.26;70.56;99381.63;108460;1283;22446;-55
2022/03/05 03:23:28;;;;;;;4.40;3.10;;;;;;;-1.26;70.43;99384.50;108342;1285;136326;-55
2022/03/05 03:25:56;;;;;;;2.60;2.20;;;;;;;-1.25;70.51;99383.15;108274;1282;318532;-55
2022/03/05 03:28:24;;;;;;;4.40;3.00;;;;;;;-1.24;70.13;99382.81;108625;1283;136905;-56
2022/03/05 03:30:52;;;;;;;4.80;2.90;;;;;;;-1.24;70.33;99385.23;108793;1280;22472;-55
2022/03/05 03:33:20;;;;;;;4.10;2.90;;;;;;;-1.24;70.10;99386.67;108666;1281;138171;-56
2022/03/05 03:35:48;;;;;;;4.20;3.20;;;;;;;-1.26;70.22;99386.37;108562;1281;22529;-55
2022/03/05 03:38:16;;;;;;;4.20;2.90;;;;;;;-1.29;70.29;99389.14;109161;1277;22343;-56
2022/03/05 03:40:44;;;;;;;4.30;3.00;;;;;;;-1.27;70.30;99391.55;109037;1277;136779;-55
2022/03/05 03:43:12;;;;;;;5.20;3.10;;;;;;;-1.27;70.37;99391.48;109128;1277;23633;-56
2022/03/05 03:45:40;;;;;;;4.60;3.10;;;;;;;-1.27;70.51;99389.99;108146;1277;138441;-55
2022/03/05 03:48:08;;;;;;;4.20;2.70;;;;;;;-1.29;70.37;99396.92;109042;1278;22439;-55
2022/03/05 03:50:36;;;;;;;4.40;3.00;;;;;;;-1.28;70.57;99394.88;109102;1277;22396;-55
2022/03/05 03:53:04;;;;;;;4.60;2.90;;;;;;;-1.27;70.55;99401.55;109025;1277;137433;-55
2022/03/05 03:55:32;;;;;;;5.20;2.90;;;;;;;-1.26;70.39;99405.11;109003;1280;22460;-55
2022/03/05 03:58:01;;;;;;;3.70;2.50;;;;;;;-1.27;70.45;99403.98;108902;1279;137410;-55
2022/03/05 04:00:29;;;;;;;4.20;2.50;;;;;;;-1.26;70.59;99407.12;109026;1280;23195;-55
2022/03/05 04:02:57;;;;;;;5.00;2.80;;;;;;;-1.24;70.39;99408.88;108992;1279;23237;-55
2022/03/05 04:05:25;;;;;;;4.50;2.50;;;;;;;-1.23;70.42;99403.88;108882;1279;139119;-55
2022/03/05 04:10:39;;;;;;;3.10;2.10;;;;;;;-1.23;70.52;99401.09;108850;1279;137497;-56
2022/03/05 04:13:08;;;;;;;4.20;2.60;;;;;;;-1.21;70.45;99401.65;108903;1280;22536;-55
2022/03/05 04:15:36;;;;;;;3.10;2.10;;;;;;;-1.21;70.27;99409.30;108676;1281;137263;-55
2022/03/05 04:18:06;;;;;;;3.50;2.20;;;;;;;-1.23;70.36;99413.46;108961;1279;22475;-56
2022/03/05 04:20:34;;;;;;;2.80;2.30;;;;;;;-1.23;70.54;99415.11;108899;1280;22971;-56
2022/03/05 04:23:03;;;;;;;2.90;2.20;;;;;;;-1.24;70.27;99418.76;108623;1281;137744;-55
2022/03/05 04:25:31;;;;;;;2.40;1.80;;;;;;;-1.25;70.40;99417.53;108893;1280;22652;-55
2022/03/05 04:27:59;;;;;;;3.40;1.90;;;;;;;-1.27;70.29;99419.69;108724;1280;139130;-56
2022/03/05 04:30:27;;;;;;;2.40;1.80;;;;;;;-1.27;70.54;99424.00;108865;1281;22485;-56
2022/03/05 04:32:55;;;;;;;4.50;1.70;;;;;;;-1.26;70.45;99419.61;108774;1281;22542;-55
2022/03/05 04:35:23;;;;;;;3.60;1.90;;;;;;;-1.25;70.35;99423.17;108911;1279;138737;-55
2022/03/05 04:37:51;;;;;;;2.80;2.10;;;;;;;-1.23;70.48;99431.48;109018;1278;22597;-55
2022/03/05 04:40:19;;;;;;;2.20;1.60;;;;;;;-1.22;70.37;99430.70;108926;1278;137540;-55
2022/03/05 04:42:47;;;;;;;2.50;1.80;;;;;;;-1.23;70.25;99431.89;108995;1279;22460;-55
2022/03/05 04:45:15;;;;;;;1.60;1.50;;;;;;;-1.19;70.33;99435.81;108949;1278;137786;-56
2022/03/05 04:47:43;;;;;;;2.50;1.60;;;;;;;-1.18;70.10;99435.04;109043;1277;22264;-55
2022/03/05 04:50:11;;;;;;;2.90;1.70;;;;;;;-1.17;69.96;99439.75;109070;1278;23096;-55
2022/03/05 04:52:40;;;;;;;2.70;1.70;;;;;;;-1.17;69.87;99444.85;108922;1277;137835;-55
2022/03/05 04:55:08;;;;;;;2.40;1.50;;;;;;;-1.18;69.75;99444.55;109016;1278;22536;-55
2022/03/05 04:57:36;;;;;;;2.50;1.80;;;;;;;-1.18;70.00;99445.16;108976;1278;137008;-55
2022/03/05 05:00:06;;;;;;;2.60;1.70;;;;;;;-1.20;69.80;99453.20;108987;1279;22403;-57
2022/03/05 05:02:34;;;;;;;2.10;1.70;;;;;;;-1.21;69.71;99456.17;109019;1279;22457;-56
2022/03/05 05:05:03;;;;;;;2.70;1.70;;;;;;;-1.22;69.95;99458.96;108753;1279;137660;-56
2022/03/05 05:07:31;;;;;;;2.30;1.70;;;;;;;-1.22;69.72;99463.94;109017;1278;22422;-56
2022/03/05 05:10:00;;;;;;;1.70;1.20;;;;;;;-1.20;69.76;99472.52;108991;1277;139037;-57
2022/03/05 05:12:28;;;;;;;2.80;1.60;;;;;;;-1.19;69.80;99475.05;109127;1277;23194;-56
2022/03/05 05:14:56;;;;;;;2.10;1.60;;;;;;;-1.18;69.85;99476.17;109142;1277;23286;-57
2022/03/05 05:17:24;;;;;;;2.60;1.50;;;;;;;-1.17;69.64;99478.33;108943;1277;138337;-58
2022/03/05 05:19:52;;;;;;;2.10;1.60;;;;;;;-1.15;69.97;99477.73;109104;1277;22482;-57
2022/03/05 05:22:20;;;;;;;3.00;1.60;;;;;;;-1.13;69.56;99483.14;109054;1277;137000;-57
2022/03/05 05:24:48;;;;;;;2.50;1.40;;;;;;;-1.14;69.30;99483.70;109118;1277;23604;-57
2022/03/05 05:27:16;;;;;;;2.20;1.70;;;;;;;-1.12;69.39;99490.75;108984;1277;136949;-57
2022/03/05 05:29:45;;;;;;;1.80;1.60;;;;;;;-1.11;69.34;99492.58;109152;1277;22480;-57
2022/03/05 05:32:13;;;;;;;2.20;1.70;;;;;;;-1.10;69.35;99495.69;109161;1277;22465;-57
2022/03/05 05:34:44;;;;;;;3.10;1.70;;;;;;;-1.10;69.35;99498.52;109004;1277;136565;-58
2022/03/05 05:37:15;;;;;;;1.80;1.40;;;;;;;-1.10;69.22;99498.33;109192;1277;22526;-55
2022/03/05 05:39:44;;;;;;;2.10;1.60;;;;;;;-1.11;68.75;99496.29;109011;1276;137150;-55
2022/03/05 05:42:12;;;;;;;3.60;2.00;;;;;;;-1.12;68.74;99496.60;109141;1277;22695;-55
2022/03/05 05:44:40;;;;;;;2.70;1.80;;;;;;;-1.12;68.60;99497.95;109130;1277;23903;-55
2022/03/05 05:47:09;;;;;;;4.80;1.40;;;;;;;-1.10;68.59;99505.48;108879;1278;137581;-55
2022/03/05 05:49:37;;;;;;;1.80;1.30;;;;;;;-1.09;68.29;99505.54;109132;1278;22455;-56
2022/03/05 05:52:08;;;;;;;1.70;1.30;;;;;;;-1.09;68.53;99504.22;108995;1277;138441;-55
2022/03/05 05:54:37;;;;;;;1.70;1.30;;;;;;;-1.11;68.53;99502.88;109037;1278;22617;-55
2022/03/05 05:57:07;;;;;;;3.60;1.50;;;;;;;-1.08;68.46;99509.66;105681;1277;23393;-55
2022/03/05 05:59:37;;;;;;;2.30;1.10;;;;;;;-1.07;68.55;99512.56;109003;1277;138362;-55
2022/03/05 06:02:06;;;;;;;2.30;1.40;;;;;;;-1.08;68.27;99511.93;109132;1277;22534;-55
2022/03/05 06:04:34;;;;;;;2.30;1.30;;;;;;;-1.07;68.60;99517.05;109035;1277;138835;-56
2022/03/05 06:07:03;;;;;;;2.30;1.50;;;;;;;-1.06;68.26;99515.41;109143;1277;22544;-55
2022/03/05 06:09:31;;;;;;;2.30;1.50;;;;;;;-1.11;68.18;99510.04;109029;1277;138037;-55
2022/03/05 06:11:59;;;;;;;1.60;1.00;;;;;;;-1.09;68.27;99519.30;109107;1277;22455;-55
2022/03/05 06:14:27;;;;;;;3.00;1.40;;;;;;;-1.09;68.39;99524.83;109136;1277;22476;-55
2022/03/05 06:16:56;;;;;;;2.80;1.70;;;;;;;-1.07;68.10;99537.36;109013;1277;138129;-55
2022/03/05 06:19:24;;;;;;;1.70;1.40;;;;;;;-1.07;68.14;99535.99;109143;1277;22484;-56
2022/03/05 06:21:52;;;;;;;2.90;1.30;;;;;;;-1.06;68.23;99544.20;108962;1278;139495;-55
2022/03/05 06:24:20;;;;;;;1.90;1.50;;;;;;;-1.02;68.20;99542.00;109125;1277;22427;-55
2022/03/05 06:26:48;;;;;;;1.60;1.10;;;;;;;-0.99;68.15;99543.35;109171;1278;22460;-55
2022/03/05 06:29:16;;;;;;;2.70;2.10;;;;;;;-0.97;67.68;99549.39;108980;1278;138447;-55
2022/03/05 06:31:44;;;;;;;2.70;1.30;;;;;;;-0.96;67.68;99551.62;109129;1277;22484;-55
2022/03/05 06:34:12;;;;;;;2.20;1.30;;;;;;;-0.95;67.58;99549.73;109078;1277;136993;-57
2022/03/05 06:36:40;;;;;;;2.20;1.10;;;;;;;-0.94;67.80;99553.64;109161;1277;22440;-56
2022/03/05 06:39:08;;;;;;;1.20;0.90;;;;;;;-0.96;67.21;99549.83;109143;1277;22545;-55
2022/03/05 06:41:36;;;;;;;2.50;1.30;;;;;;;-0.95;67.21;99555.92;108945;1279;137313;-56
2022/03/05 06:44:06;;;;;;;1.80;1.20;;;;;;;-0.95;67.31;99563.58;109150;1277;23379;-55
2022/03/05 06:46:36;;;;;;;1.40;1.20;;;;;;;-0.95;67.35;99566.29;109024;1277;138072;-56
2022/03/05 06:49:05;;;;;;;2.50;1.30;;;;;;;-0.95;67.53;99565.52;109114;1277;23397;-56
2022/03/05 06:51:33;;;;;;;2.20;1.40;;;;;;;-0.94;67.25;99568.95;109004;1278;137982;-56
2022/03/05 06:54:01;;;;;;;5.10;3.00;;;;;;;-0.92;67.34;99570.38;109135;1277;22572;-56
2022/03/05 06:56:29;;;;;;;3.30;1.40;;;;;;;-0.89;67.35;99575.69;109166;1277;22505;-56
2022/03/05 06:58:57;;;;;;;2.30;1.40;;;;;;;-0.87;67.37;99569.63;109025;1277;137753;-56
2022/03/05 07:01:25;;;;;;;1.70;1.20;;;;;;;-0.86;67.28;99569.95;109116;1277;22621;-56
2022/03/05 07:03:53;;;;;;;1.20;1.00;;;;;;;-0.82;67.13;99570.96;109014;1276;139545;-57
2022/03/05 07:06:21;;;;;;;8.70;4.40;;;;;;;-0.80;66.92;99569.23;109156;1277;22516;-56
2022/03/05 07:08:49;;;;;;;24.80;13.10;;;;;;;-0.79;66.58;99574.27;108992;1278;22527;-57
2022/03/05 07:11:17;;;;;;;19.60;10.10;;;;;;;-0.78;66.84;99580.71;109056;1277;139171;-56
2022/03/05 07:13:45;;;;;;;173.20;54.30;;;;;;;-0.79;66.51;99574.61;109178;1278;23347;-57
2022/03/05 07:16:13;;;;;;;270.90;81.90;;;;;;;-0.77;66.36;99577.77;109050;1278;139139;-56
2022/03/05 07:18:44;;;;;;;227.60;71.90;;;;;;;-0.77;66.22;99579.60;109173;1277;22484;-57
2022/03/05 07:21:12;;;;;;;153.20;46.40;;;;;;;-0.79;65.93;99580.36;109119;1277;23715;-55
2022/03/05 07:23:40;;;;;;;117.90;40.30;;;;;;;-0.79;66.08;99582.30;109042;1278;137562;-57
2022/03/05 07:26:08;;;;;;;59.90;21.00;;;;;;;-0.79;65.82;99584.47;109097;1278;22512;-56
2022/03/05 07:28:36;;;;;;;189.30;72.30;;;;;;;-0.78;66.03;99586.87;109010;1278;137831;-56
2022/03/05 07:31:05;;;;;;;70.80;29.10;;;;;;;-0.77;65.94;99591.91;109203;1277;22717;-57
2022/03/05 07:33:33;;;;;;;40.60;17.50;;;;;;;-0.74;66.00;99597.10;109041;1277;137855;-57
2022/03/05 07:36:04;;;;;;;45.00;20.20;;;;;;;-0.73;65.66;99596.27;109165;1278;22253;-56
2022/03/05 07:38:32;;;;;;;33.70;17.40;;;;;;;-0.72;65.71;99596.84;109126;1277;22575;-56
2022/03/05 07:41:00;;;;;;;10.20;5.30;;;;;;;-0.71;65.37;99596.91;109028;1277;137543;-57
2022/03/05 07:43:28;;;;;;;21.60;11.00;;;;;;;-0.71;65.10;99597.55;109130;1278;22467;-57
2022/03/05 07:45:56;;;;;;;53.80;24.60;;;;;;;-0.71;65.64;99592.92;109015;1277;137732;-57
2022/03/05 07:48:25;;;;;;;12.60;6.20;;;;;;;-0.69;65.49;99596.49;109066;1278;23369;-57
2022/03/05 07:50:53;;;;;;;64.20;22.50;;;;;;;-0.68;65.35;99593.38;109140;1278;23494;-57
2022/03/05 07:53:21;;;;;;;133.60;44.40;;;;;;;-0.68;65.30;99595.48;109021;1277;137555;-57
2022/03/05 07:55:49;;;;;;;63.40;22.40;;;;;;;-0.68;65.33;99597.02;109093;1278;22417;-56
2022/03/05 07:58:17;;;;;;;41.50;14.60;;;;;;;-0.66;65.20;99597.45;109041;1277;137644;-57
2022/03/05 08:00:45;;;;;;;28.20;10.30;;;;;;;-0.67;65.08;99597.98;109159;1278;22525;-56
2022/03/05 08:03:13;;;;;;;36.70;14.20;;;;;;;-0.66;65.31;99599.34;109124;1277;22536;-56
2022/03/05 08:05:43;;;;;;;41.70;16.80;;;;;;;-0.65;65.38;99602.58;109085;1277;138542;-56
2022/03/05 08:08:11;;;;;;;23.90;11.40;;;;;;;-0.63;65.26;99600.59;109155;1278;22447;-58
2022/03/05 08:10:41;;;;;;;5.90;3.10;;;;;;;-0.62;65.66;99599.88;108975;1278;138293;-56
2022/03/05 08:13:12;;;;;;;15.20;6.30;;;;;;;-0.61;65.37;99600.04;109146;1277;22420;-56
2022/03/05 08:15:40;;;;;;;7.70;3.30;;;;;;;-0.57;65.35;99599.67;109039;1277;138120;-56
2022/03/05 08:18:09;;;;;;;4.80;2.10;;;;;;;-0.55;65.33;99602.50;109126;1277;23276;-56
2022/03/05 08:20:38;;;;;;;9.00;3.40;;;;;;;-0.53;65.30;99606.62;109177;1277;22454;-56
2022/03/05 08:23:06;;;;;;;13.10;6.10;;;;;;;-0.51;65.18;99604.86;108941;1278;137191;-57
2022/03/05 08:25:35;;;;;;;12.60;6.10;;;;;;;-0.50;65.26;99612.74;109165;1277;22585;-56
2022/03/05 08:28:03;;;;;;;6.40;3.90;;;;;;;-0.48;65.10;99610.52;109033;1278;138629;-56
2022/03/05 08:30:31;;;;;;;7.70;4.90;;;;;;;-0.46;65.01;99612.04;109006;1277;22560;-56
2022/03/05 08:32:59;;;;;;;4.60;3.00;;;;;;;-0.45;65.15;99612.50;109188;1278;22448;-56
2022/03/05 08:35:27;;;;;;;4.10;2.10;;;;;;;-0.44;65.08;99612.35;108480;1278;137066;-56
2022/03/05 08:38:01;;;;;;;5.30;3.10;;;;;;;-0.43;64.72;99617.00;104906;1278;22791;-55
2022/03/05 08:40:29;;;;;;;3.50;2.10;;;;;;;-0.40;64.95;99613.83;104676;1278;137329;-56
2022/03/05 08:42:57;;;;;;;2.30;1.60;;;;;;;-0.38;65.04;99616.09;109116;1277;23743;-56
2022/03/05 08:45:29;;;;;;;2.50;1.50;;;;;;;-0.36;65.08;99614.18;109052;1277;138372;-56
2022/03/05 08:47:57;;;;;;;1.80;1.30;;;;;;;-0.33;65.20;99616.44;109120;1277;22484;-56
2022/03/05 08:50:25;;;;;;;2.20;1.50;;;;;;;-0.33;65.30;99611.71;109100;1277;23584;-56
2022/03/05 08:52:54;;;;;;;3.10;1.90;;;;;;;-0.26;65.29;99619.21;109088;1277;137301;-56
2022/03/05 08:55:22;;;;;;;2.10;1.60;;;;;;;-0.21;65.16;99622.37;109150;1277;22384;-56
2022/03/05 08:57:50;;;;;;;2.30;1.20;;;;;;;-0.17;65.18;99626.18;108874;1279;138070;-56
2022/03/05 09:00:18;;;;;;;3.70;1.40;;;;;;;-0.15;64.58;99623.98;109074;1279;22511;-56
2022/03/05 09:02:46;;;;;;;1.60;1.20;;;;;;;-0.14;64.55;99627.39;109137;1277;22441;-56
2022/03/05 09:05:14;;;;;;;1.80;1.30;;;;;;;-0.12;64.22;99633.06;109052;1277;137195;-56
2022/03/05 09:07:43;;;;;;;1.90;1.70;;;;;;;-0.09;64.43;99635.73;109165;1278;22638;-56
2022/03/05 09:10:11;;;;;;;3.80;2.50;;;;;;;-0.07;64.21;99637.63;109057;1277;137534;-56
2022/03/05 09:12:40;;;;;;;3.00;1.70;;;;;;;-0.07;63.82;99640.42;109143;1277;22416;-56
2022/03/05 09:15:10;;;;;;;2.40;1.40;;;;;;;-0.05;63.75;99644.70;109183;1277;23513;-56
2022/03/05 09:17:38;;;;;;;2.70;1.90;;;;;;;-0.05;63.84;99638.80;108899;1278;137404;-55
2022/03/05 09:20:07;;;;;;;3.00;2.10;;;;;;;-0.03;63.71;99642.52;109137;1277;22915;-56
2022/03/05 09:22:37;;;;;;;2.90;2.00;;;;;;;0.02;64.18;99642.59;109036;1277;138159;-56
2022/03/05 09:25:06;;;;;;;1.40;1.30;;;;;;;0.07;63.90;99646.16;109226;1277;23125;-56
2022/03/05 09:27:34;;;;;;;1.70;1.40;;;;;;;0.10;63.71;99654.08;108886;1277;139506;-56
2022/03/05 09:30:03;;;;;;;3.30;2.00;;;;;;;0.12;63.50;99656.71;109150;1276;22453;-55
2022/03/05 09:32:31;;;;;;;2.70;1.40;;;;;;;0.13;63.61;99655.57;109014;1278;22465;-56
2022/03/05 09:35:00;;;;;;;2.00;1.60;;;;;;;0.13;63.28;99659.48;109052;1277;138502;-56
2022/03/05 09:37:29;;;;;;;2.70;1.70;;;;;;;0.13;63.28;99662.52;109138;1277;22469;-56
2022/03/05 09:39:57;;;;;;;2.80;2.00;;;;;;;0.12;62.97;99663.52;109068;1277;139434;-57
2022/03/05 09:42:25;;;;;;;2.40;1.70;;;;;;;0.11;63.24;99666.70;108982;1278;22437;-57
2022/03/05 09:44:53;;;;;;;2.60;1.40;;;;;;;0.08;62.99;99662.94;109176;1277;22489;-54
2022/03/05 09:47:42;;;;;;;3.20;1.90;;;;;;;0.07;62.70;99663.92;109045;1277;138060;-57
2022/03/05 09:50:11;;;;;;;5.30;2.30;;;;;;;0.08;62.94;99666.57;109207;1277;22439;-56
2022/03/05 09:52:39;;;;;;;3.00;2.20;;;;;;;0.07;62.85;99661.36;109082;1277;137140;-56
2022/03/05 09:55:08;;;;;;;3.70;1.70;;;;;;;0.09;63.24;99664.74;108867;1278;23390;-57
2022/03/05 09:57:36;;;;;;;3.30;1.70;;;;;;;0.10;62.69;99663.19;109106;1277;137903;-56
2022/03/05 10:00:05;;;;;;;2.80;1.80;;;;;;;0.12;63.38;99669.03;109138;1277;23715;-56
2022/03/05 10:02:46;;;;;;;2.30;1.30;;;;;;;0.12;62.88;99671.94;109178;1277;22486;-55
2022/03/05 10:05:17;;;;;;;1.90;1.30;;;;;;;0.09;63.06;99668.56;109079;1277;139315;-56
2022/03/05 10:08:08;;;;;;;2.10;1.70;;;;;;;0.06;63.37;99666.71;109191;1277;22474;-56
2022/03/05 10:10:50;;;;;;;2.30;1.60;;;;;;;0.05;63.25;99668.84;108892;1277;136955;-56
2022/03/05 10:13:40;;;;;;;5.70;3.00;;;;;;;0.02;63.29;99673.45;109042;1277;22506;-56
2022/03/05 10:16:33;;;;;;;4.90;3.30;;;;;;;0.01;63.52;99674.71;108916;1278;138616;-56
2022/03/05 10:19:15;;;;;;;8.00;5.50;;;;;;;-0.01;63.43;99674.55;109245;1277;22449;-54
2022/03/05 10:22:05;;;;;;;3.30;2.20;;;;;;;-0.02;63.46;99677.91;108975;1278;138381;-57
2022/03/05 10:24:36;;;;;;;2.90;1.50;;;;;;;-0.06;63.35;99674.77;109157;1277;22470;-57
2022/03/05 10:27:06;;;;;;;2.40;1.40;;;;;;;-0.04;63.48;99673.80;109158;1277;22471;-57
2022/03/05 10:29:37;;;;;;;1.80;1.30;;;;;;;-0.04;64.08;99673.11;108956;1278;138627;-57
2022/03/05 10:32:10;;;;;;;2.90;1.50;;;;;;;-0.01;64.07;99675.45;109167;1277;22587;-57
2022/03/05 10:34:44;;;;;;;1.60;1.30;;;;;;;0.03;63.89;99674.41;109019;1277;138123;-57
2022/03/05 10:37:12;;;;;;;2.50;1.70;;;;;;;0.07;63.84;99672.84;109225;1277;22432;-55
2022/03/05 10:39:41;;;;;;;2.30;1.40;;;;;;;0.10;63.75;99670.36;108865;1278;137182;-55
2022/03/05 10:42:20;;;;;;;2.40;1.40;;;;;;;0.13;63.89;99665.13;109202;1277;23224;-55
2022/03/05 10:45:04;;;;;;;2.20;1.40;;;;;;;0.16;63.79;99668.60;109208;1277;22600;-55
2022/03/05 10:47:37;;;;;;;2.40;1.50;;;;;;;0.16;63.97;99665.48;109081;1277;136897;-56
2022/03/05 10:50:07;;;;;;;2.20;1.60;;;;;;;0.18;63.77;99666.19;109016;1278;22592;-56
2022/03/05 10:52:46;;;;;;;3.00;1.90;;;;;;;0.18;63.68;99667.23;109082;1277;138114;-56
2022/03/05 10:55:16;;;;;;;1.80;1.40;;;;;;;0.17;63.44;99661.65;109110;1277;22583;-57
2022/03/05 10:58:16;;;;;;;1.90;1.40;;;;;;;0.15;63.51;99662.04;109085;1277;137209;-56
2022/03/05 11:00:49;;;;;;;2.00;1.50;;;;;;;0.13;63.78;99665.17;109255;1277;23705;-56
2022/03/05 11:03:18;;;;;;;2.90;1.30;;;;;;;0.12;63.71;99666.56;109001;1278;22461;-56
2022/03/05 11:05:47;;;;;;;2.00;1.60;;;;;;;0.11;63.55;99668.30;109099;1277;137129;-56
2022/03/05 11:08:16;;;;;;;2.40;1.70;;;;;;;0.10;63.74;99671.92;109180;1277;22509;-56
2022/03/05 11:11:04;;;;;;;2.60;1.60;;;;;;;0.12;63.84;99676.44;108854;1277;138730;-56
2022/03/05 11:13:52;;;;;;;;;;;;;;;0.11;64.02;99673.83;109168;1277;22646;-56
2022/03/05 11:16:21;;;;;;;5.60;1.60;;;;;;;0.08;64.20;99670.05;108881;1278;123495;-56
2022/03/05 11:18:50;;;;;;;3.20;2.20;;;;;;;0.11;64.01;99672.63;108933;1277;22574;-56
2022/03/05 11:21:25;;;;;;;3.90;2.20;;;;;;;0.10;64.14;99670.06;109149;1277;23491;-57
2022/03/05 11:23:54;;;;;;;8.50;2.30;;;;;;;0.10;64.24;99672.70;108939;1277;136613;-56
2022/03/05 11:26:22;;;;;;;3.50;2.00;;;;;;;0.08;63.86;99664.69;108903;1277;22455;-56
2022/03/05 11:28:50;;;;;;;3.10;2.00;;;;;;;0.11;64.03;99670.05;109065;1277;137046;-57
2022/03/05 11:31:21;;;;;;;6.30;2.60;;;;;;;0.09;63.92;99666.52;108972;1277;23213;-56
2022/03/05 11:33:49;;;;;;;5.60;2.70;;;;;;;0.14;63.79;99670.28;109084;1277;138117;-57
2022/03/05 11:36:36;;;;;;;3.70;2.60;;;;;;;0.15;63.33;99663.73;109184;1277;22482;-56